sensor_id;sensor_type;location;lat;lon;timestamp;P1;durP1;ratioP1;P2;durP2;ratioP2
50821;SDS011;36794;51.212;6.980;2024-02-04T00:01:40;18.57;;;11.60;;
50821;SDS011;36794;51.212;6.980;2024-02-04T00:04:06;19.70;;;11.60;;
50821;SDS011;36794;51.212;6.980;2024-02-04T00:06:32;19.00;;;11.50;;
50821;SDS011;36794;51.212;6.980;2024-02-04T00:08:58;21.57;;;11.70;;
50821;SDS011;36794;51.212;6.980;2024-02-04T00:11:24;19.37;;;11.50;;
50821;SDS011;36794;51.212;6.980;2024-02-04T00:13:50;16.17;;;9.37;;
50821;SDS011;36794;51.212;6.980;2024-02-04T00:16:17;15.63;;;9.70;;
50821;SDS011;36794;51.212;6.980;2024-02-04T00:18:43;15.97;;;8.00;;
50821;SDS011;36794;51.212;6.980;2024-02-04T00:21:09;14.57;;;8.03;;
50821;SDS011;36794;51.212;6.980;2024-02-04T00:23:35;11.73;;;6.30;;
50821;SDS011;36794;51.212;6.980;2024-02-04T00:26:01;10.20;;;5.90;;
50821;SDS011;36794;51.212;6.980;2024-02-04T00:28:27;8.77;;;5.17;;
50821;SDS011;36794;51.212;6.980;2024-02-04T00:30:53;7.27;;;4.43;;
50821;SDS011;36794;51.212;6.980;2024-02-04T00:33:24;6.00;;;3.87;;
50821;SDS011;36794;51.212;6.980;2024-02-04T00:35:50;6.63;;;3.73;;
50821;SDS011;36794;51.212;6.980;2024-02-04T00:38:16;6.03;;;3.93;;
50821;SDS011;36794;51.212;6.980;2024-02-04T00:40:42;7.83;;;3.97;;
50821;SDS011;36794;51.212;6.980;2024-02-04T00:43:08;8.40;;;3.83;;
50821;SDS011;36794;51.212;6.980;2024-02-04T00:45:33;8.33;;;4.70;;
50821;SDS011;36794;51.212;6.980;2024-02-04T00:47:59;11.97;;;4.90;;
50821;SDS011;36794;51.212;6.980;2024-02-04T00:50:25;8.80;;;5.07;;
50821;SDS011;36794;51.212;6.980;2024-02-04T00:52:51;12.33;;;5.53;;
50821;SDS011;36794;51.212;6.980;2024-02-04T00:55:20;10.97;;;5.23;;
50821;SDS011;36794;51.212;6.980;2024-02-04T00:57:46;8.37;;;5.20;;
50821;SDS011;36794;51.212;6.980;2024-02-04T01:00:12;8.47;;;5.33;;
50821;SDS011;36794;51.212;6.980;2024-02-04T01:02:39;9.47;;;5.93;;
50821;SDS011;36794;51.212;6.980;2024-02-04T01:05:05;7.77;;;5.53;;
50821;SDS011;36794;51.212;6.980;2024-02-04T01:07:31;12.73;;;6.03;;
50821;SDS011;36794;51.212;6.980;2024-02-04T01:09:57;13.20;;;6.53;;
50821;SDS011;36794;51.212;6.980;2024-02-04T01:12:23;12.23;;;6.63;;
50821;SDS011;36794;51.212;6.980;2024-02-04T01:14:49;12.70;;;6.77;;
50821;SDS011;36794;51.212;6.980;2024-02-04T01:17:15;12.03;;;7.77;;
50821;SDS011;36794;51.212;6.980;2024-02-04T01:19:41;13.97;;;7.30;;
50821;SDS011;36794;51.212;6.980;2024-02-04T01:22:07;14.00;;;7.60;;
50821;SDS011;36794;51.212;6.980;2024-02-04T01:24:33;13.13;;;7.90;;
50821;SDS011;36794;51.212;6.980;2024-02-04T01:26:59;14.90;;;7.50;;
50821;SDS011;36794;51.212;6.980;2024-02-04T01:29:24;13.13;;;7.93;;
50821;SDS011;36794;51.212;6.980;2024-02-04T01:31:50;13.93;;;8.03;;
50821;SDS011;36794;51.212;6.980;2024-02-04T01:34:16;14.23;;;7.90;;
50821;SDS011;36794;51.212;6.980;2024-02-04T01:36:42;14.20;;;7.83;;
50821;SDS011;36794;51.212;6.980;2024-02-04T01:39:08;14.23;;;7.77;;
50821;SDS011;36794;51.212;6.980;2024-02-04T01:41:35;13.63;;;7.60;;
50821;SDS011;36794;51.212;6.980;2024-02-04T01:44:01;13.07;;;7.40;;
50821;SDS011;36794;51.212;6.980;2024-02-04T01:46:27;12.20;;;7.47;;
50821;SDS011;36794;51.212;6.980;2024-02-04T01:48:53;14.80;;;8.47;;
50821;SDS011;36794;51.212;6.980;2024-02-04T01:51:19;17.53;;;8.60;;
50821;SDS011;36794;51.212;6.980;2024-02-04T01:53:46;13.93;;;7.77;;
50821;SDS011;36794;51.212;6.980;2024-02-04T01:56:13;14.47;;;9.00;;
50821;SDS011;36794;51.212;6.980;2024-02-04T01:58:39;14.73;;;8.50;;
50821;SDS011;36794;51.212;6.980;2024-02-04T02:01:05;14.90;;;9.07;;
50821;SDS011;36794;51.212;6.980;2024-02-04T02:03:31;13.97;;;8.07;;
50821;SDS011;36794;51.212;6.980;2024-02-04T02:05:57;17.47;;;8.57;;
50821;SDS011;36794;51.212;6.980;2024-02-04T02:08:23;16.03;;;9.47;;
50821;SDS011;36794;51.212;6.980;2024-02-04T02:10:50;16.20;;;8.53;;
50821;SDS011;36794;51.212;6.980;2024-02-04T02:13:18;15.40;;;9.13;;
50821;SDS011;36794;51.212;6.980;2024-02-04T02:15:51;14.80;;;8.20;;
50821;SDS011;36794;51.212;6.980;2024-02-04T02:18:22;18.73;;;8.63;;
50821;SDS011;36794;51.212;6.980;2024-02-04T02:23:34;15.35;;;8.05;;
50821;SDS011;36794;51.212;6.980;2024-02-04T02:26:00;14.23;;;7.93;;
50821;SDS011;36794;51.212;6.980;2024-02-04T02:28:28;15.37;;;8.07;;
50821;SDS011;36794;51.212;6.980;2024-02-04T02:30:54;16.10;;;7.80;;
50821;SDS011;36794;51.212;6.980;2024-02-04T02:33:20;15.47;;;7.90;;
50821;SDS011;36794;51.212;6.980;2024-02-04T02:35:46;13.97;;;8.00;;
50821;SDS011;36794;51.212;6.980;2024-02-04T02:38:20;16.40;;;8.43;;
50821;SDS011;36794;51.212;6.980;2024-02-04T02:40:51;15.30;;;8.50;;
50821;SDS011;36794;51.212;6.980;2024-02-04T02:43:19;17.33;;;8.90;;
50821;SDS011;36794;51.212;6.980;2024-02-04T02:45:46;16.20;;;8.80;;
50821;SDS011;36794;51.212;6.980;2024-02-04T02:48:12;16.83;;;9.07;;
50821;SDS011;36794;51.212;6.980;2024-02-04T02:50:38;15.90;;;8.27;;
50821;SDS011;36794;51.212;6.980;2024-02-04T02:53:04;15.47;;;8.70;;
50821;SDS011;36794;51.212;6.980;2024-02-04T02:55:30;15.67;;;8.47;;
50821;SDS011;36794;51.212;6.980;2024-02-04T02:57:56;14.97;;;8.50;;
50821;SDS011;36794;51.212;6.980;2024-02-04T03:00:22;19.30;;;9.60;;
50821;SDS011;36794;51.212;6.980;2024-02-04T03:02:48;15.63;;;8.40;;
50821;SDS011;36794;51.212;6.980;2024-02-04T03:05:18;17.67;;;8.17;;
50821;SDS011;36794;51.212;6.980;2024-02-04T03:07:44;14.80;;;7.80;;
50821;SDS011;36794;51.212;6.980;2024-02-04T03:10:09;15.80;;;7.87;;
50821;SDS011;36794;51.212;6.980;2024-02-04T03:12:36;15.80;;;8.00;;
50821;SDS011;36794;51.212;6.980;2024-02-04T03:15:02;16.80;;;7.97;;
50821;SDS011;36794;51.212;6.980;2024-02-04T03:17:28;15.63;;;8.13;;
50821;SDS011;36794;51.212;6.980;2024-02-04T03:19:53;14.87;;;8.10;;
50821;SDS011;36794;51.212;6.980;2024-02-04T03:22:20;19.87;;;8.37;;
50821;SDS011;36794;51.212;6.980;2024-02-04T03:24:49;14.57;;;7.13;;
50821;SDS011;36794;51.212;6.980;2024-02-04T03:27:16;14.60;;;7.03;;
50821;SDS011;36794;51.212;6.980;2024-02-04T03:29:42;14.00;;;6.83;;
50821;SDS011;36794;51.212;6.980;2024-02-04T03:32:08;13.80;;;7.20;;
50821;SDS011;36794;51.212;6.980;2024-02-04T03:34:34;14.73;;;7.83;;
50821;SDS011;36794;51.212;6.980;2024-02-04T03:37:00;21.23;;;8.03;;
50821;SDS011;36794;51.212;6.980;2024-02-04T03:39:26;15.40;;;7.90;;
50821;SDS011;36794;51.212;6.980;2024-02-04T03:41:52;14.10;;;7.63;;
50821;SDS011;36794;51.212;6.980;2024-02-04T03:44:18;13.63;;;7.33;;
50821;SDS011;36794;51.212;6.980;2024-02-04T03:46:47;16.07;;;7.27;;
50821;SDS011;36794;51.212;6.980;2024-02-04T03:49:13;14.23;;;7.17;;
50821;SDS011;36794;51.212;6.980;2024-02-04T03:51:39;15.23;;;7.10;;
50821;SDS011;36794;51.212;6.980;2024-02-04T03:54:05;13.67;;;7.13;;
50821;SDS011;36794;51.212;6.980;2024-02-04T03:56:31;17.10;;;7.67;;
50821;SDS011;36794;51.212;6.980;2024-02-04T03:58:57;14.23;;;7.70;;
50821;SDS011;36794;51.212;6.980;2024-02-04T04:01:24;15.73;;;8.40;;
50821;SDS011;36794;51.212;6.980;2024-02-04T04:03:50;17.97;;;8.77;;
50821;SDS011;36794;51.212;6.980;2024-02-04T04:06:16;21.20;;;8.57;;
50821;SDS011;36794;51.212;6.980;2024-02-04T04:08:42;21.63;;;9.73;;
50821;SDS011;36794;51.212;6.980;2024-02-04T04:11:08;19.37;;;9.77;;
50821;SDS011;36794;51.212;6.980;2024-02-04T04:13:35;23.47;;;10.93;;
50821;SDS011;36794;51.212;6.980;2024-02-04T04:16:01;26.87;;;11.37;;
50821;SDS011;36794;51.212;6.980;2024-02-04T04:18:27;27.60;;;11.23;;
50821;SDS011;36794;51.212;6.980;2024-02-04T04:20:53;28.17;;;11.43;;
50821;SDS011;36794;51.212;6.980;2024-02-04T04:23:19;28.50;;;12.33;;
50821;SDS011;36794;51.212;6.980;2024-02-04T04:25:45;27.17;;;12.97;;
50821;SDS011;36794;51.212;6.980;2024-02-04T04:28:11;26.37;;;12.17;;
50821;SDS011;36794;51.212;6.980;2024-02-04T04:30:37;29.37;;;12.43;;
50821;SDS011;36794;51.212;6.980;2024-02-04T04:33:03;29.00;;;13.07;;
50821;SDS011;36794;51.212;6.980;2024-02-04T04:35:29;33.57;;;13.00;;
50821;SDS011;36794;51.212;6.980;2024-02-04T04:37:55;29.90;;;14.03;;
50821;SDS011;36794;51.212;6.980;2024-02-04T04:40:21;35.20;;;13.60;;
50821;SDS011;36794;51.212;6.980;2024-02-04T04:42:47;31.60;;;12.83;;
50821;SDS011;36794;51.212;6.980;2024-02-04T04:45:13;32.13;;;13.40;;
50821;SDS011;36794;51.212;6.980;2024-02-04T04:47:39;35.13;;;14.17;;
50821;SDS011;36794;51.212;6.980;2024-02-04T04:50:05;32.33;;;14.33;;
50821;SDS011;36794;51.212;6.980;2024-02-04T04:52:31;36.07;;;13.77;;
50821;SDS011;36794;51.212;6.980;2024-02-04T04:54:58;34.90;;;13.77;;
50821;SDS011;36794;51.212;6.980;2024-02-04T04:57:24;31.37;;;14.70;;
50821;SDS011;36794;51.212;6.980;2024-02-04T04:59:50;30.70;;;13.67;;
50821;SDS011;36794;51.212;6.980;2024-02-04T05:02:16;34.60;;;13.70;;
50821;SDS011;36794;51.212;6.980;2024-02-04T05:04:42;31.60;;;14.40;;
50821;SDS011;36794;51.212;6.980;2024-02-04T05:07:09;32.50;;;14.57;;
50821;SDS011;36794;51.212;6.980;2024-02-04T05:09:35;32.03;;;13.90;;
50821;SDS011;36794;51.212;6.980;2024-02-04T05:12:02;32.63;;;14.33;;
50821;SDS011;36794;51.212;6.980;2024-02-04T05:14:28;35.77;;;13.80;;
50821;SDS011;36794;51.212;6.980;2024-02-04T05:16:54;30.83;;;14.17;;
50821;SDS011;36794;51.212;6.980;2024-02-04T05:19:20;30.70;;;14.80;;
50821;SDS011;36794;51.212;6.980;2024-02-04T05:21:46;34.43;;;14.60;;
50821;SDS011;36794;51.212;6.980;2024-02-04T05:24:12;28.73;;;13.83;;
50821;SDS011;36794;51.212;6.980;2024-02-04T05:26:38;36.93;;;15.00;;
50821;SDS011;36794;51.212;6.980;2024-02-04T05:29:04;37.03;;;15.73;;
50821;SDS011;36794;51.212;6.980;2024-02-04T05:31:30;33.60;;;16.30;;
50821;SDS011;36794;51.212;6.980;2024-02-04T05:33:56;39.53;;;15.70;;
50821;SDS011;36794;51.212;6.980;2024-02-04T05:36:22;35.13;;;16.00;;
50821;SDS011;36794;51.212;6.980;2024-02-04T05:38:48;34.43;;;15.17;;
50821;SDS011;36794;51.212;6.980;2024-02-04T05:41:14;33.70;;;15.53;;
50821;SDS011;36794;51.212;6.980;2024-02-04T05:43:40;39.53;;;16.47;;
50821;SDS011;36794;51.212;6.980;2024-02-04T05:46:06;40.70;;;16.73;;
50821;SDS011;36794;51.212;6.980;2024-02-04T05:48:32;40.00;;;16.53;;
50821;SDS011;36794;51.212;6.980;2024-02-04T05:50:59;37.07;;;16.03;;
50821;SDS011;36794;51.212;6.980;2024-02-04T05:53:25;40.53;;;16.53;;
50821;SDS011;36794;51.212;6.980;2024-02-04T05:55:51;41.23;;;17.47;;
50821;SDS011;36794;51.212;6.980;2024-02-04T05:58:17;38.23;;;16.53;;
50821;SDS011;36794;51.212;6.980;2024-02-04T06:00:43;41.13;;;15.90;;
50821;SDS011;36794;51.212;6.980;2024-02-04T06:03:09;41.77;;;16.73;;
50821;SDS011;36794;51.212;6.980;2024-02-04T06:05:35;41.60;;;16.60;;
50821;SDS011;36794;51.212;6.980;2024-02-04T06:08:01;39.63;;;17.60;;
50821;SDS011;36794;51.212;6.980;2024-02-04T06:10:27;38.90;;;16.00;;
50821;SDS011;36794;51.212;6.980;2024-02-04T06:12:53;37.67;;;16.03;;
50821;SDS011;36794;51.212;6.980;2024-02-04T06:15:19;39.40;;;16.63;;
50821;SDS011;36794;51.212;6.980;2024-02-04T06:17:46;37.30;;;15.57;;
50821;SDS011;36794;51.212;6.980;2024-02-04T06:20:12;36.73;;;16.33;;
50821;SDS011;36794;51.212;6.980;2024-02-04T06:22:38;39.33;;;15.27;;
50821;SDS011;36794;51.212;6.980;2024-02-04T06:25:04;37.13;;;15.10;;
50821;SDS011;36794;51.212;6.980;2024-02-04T06:27:30;34.10;;;15.40;;
50821;SDS011;36794;51.212;6.980;2024-02-04T06:29:56;37.00;;;16.43;;
50821;SDS011;36794;51.212;6.980;2024-02-04T06:32:22;42.50;;;16.43;;
50821;SDS011;36794;51.212;6.980;2024-02-04T06:34:49;37.77;;;15.97;;
50821;SDS011;36794;51.212;6.980;2024-02-04T06:37:16;43.93;;;15.97;;
50821;SDS011;36794;51.212;6.980;2024-02-04T06:39:42;36.23;;;15.67;;
50821;SDS011;36794;51.212;6.980;2024-02-04T06:42:08;40.13;;;16.10;;
50821;SDS011;36794;51.212;6.980;2024-02-04T06:44:34;37.23;;;15.53;;
50821;SDS011;36794;51.212;6.980;2024-02-04T06:47:00;34.10;;;15.73;;
50821;SDS011;36794;51.212;6.980;2024-02-04T06:49:26;38.70;;;16.37;;
50821;SDS011;36794;51.212;6.980;2024-02-04T06:51:52;36.73;;;15.70;;
50821;SDS011;36794;51.212;6.980;2024-02-04T06:54:21;35.43;;;15.67;;
50821;SDS011;36794;51.212;6.980;2024-02-04T06:56:47;37.13;;;15.17;;
50821;SDS011;36794;51.212;6.980;2024-02-04T06:59:13;40.77;;;15.17;;
50821;SDS011;36794;51.212;6.980;2024-02-04T07:01:39;41.03;;;14.83;;
50821;SDS011;36794;51.212;6.980;2024-02-04T07:04:05;31.67;;;13.10;;
50821;SDS011;36794;51.212;6.980;2024-02-04T07:06:31;32.17;;;12.63;;
50821;SDS011;36794;51.212;6.980;2024-02-04T07:08:57;37.07;;;12.73;;
50821;SDS011;36794;51.212;6.980;2024-02-04T07:11:24;29.23;;;12.83;;
50821;SDS011;36794;51.212;6.980;2024-02-04T07:13:49;27.47;;;11.50;;
50821;SDS011;36794;51.212;6.980;2024-02-04T07:16:23;25.07;;;10.80;;
50821;SDS011;36794;51.212;6.980;2024-02-04T07:18:49;24.53;;;10.90;;
50821;SDS011;36794;51.212;6.980;2024-02-04T07:21:15;23.40;;;9.90;;
50821;SDS011;36794;51.212;6.980;2024-02-04T07:23:41;22.40;;;9.43;;
50821;SDS011;36794;51.212;6.980;2024-02-04T07:26:07;18.27;;;9.37;;
50821;SDS011;36794;51.212;6.980;2024-02-04T07:28:33;20.90;;;8.70;;
50821;SDS011;36794;51.212;6.980;2024-02-04T07:30:59;19.37;;;9.10;;
50821;SDS011;36794;51.212;6.980;2024-02-04T07:33:25;16.80;;;8.57;;
50821;SDS011;36794;51.212;6.980;2024-02-04T07:35:51;18.40;;;8.30;;
50821;SDS011;36794;51.212;6.980;2024-02-04T07:38:17;17.10;;;7.23;;
50821;SDS011;36794;51.212;6.980;2024-02-04T07:40:43;16.63;;;7.97;;
50821;SDS011;36794;51.212;6.980;2024-02-04T07:43:09;16.33;;;7.00;;
50821;SDS011;36794;51.212;6.980;2024-02-04T07:45:35;15.10;;;6.73;;
50821;SDS011;36794;51.212;6.980;2024-02-04T07:48:01;13.23;;;6.60;;
50821;SDS011;36794;51.212;6.980;2024-02-04T07:50:27;12.23;;;6.53;;
50821;SDS011;36794;51.212;6.980;2024-02-04T07:52:53;16.20;;;6.60;;
50821;SDS011;36794;51.212;6.980;2024-02-04T07:55:19;12.83;;;6.00;;
50821;SDS011;36794;51.212;6.980;2024-02-04T07:57:45;12.37;;;6.13;;
50821;SDS011;36794;51.212;6.980;2024-02-04T08:00:11;11.40;;;5.13;;
50821;SDS011;36794;51.212;6.980;2024-02-04T08:02:37;12.03;;;5.00;;
50821;SDS011;36794;51.212;6.980;2024-02-04T08:05:04;10.23;;;5.20;;
50821;SDS011;36794;51.212;6.980;2024-02-04T08:07:30;11.40;;;4.77;;
50821;SDS011;36794;51.212;6.980;2024-02-04T08:09:56;8.83;;;4.87;;
50821;SDS011;36794;51.212;6.980;2024-02-04T08:12:22;12.50;;;5.13;;
50821;SDS011;36794;51.212;6.980;2024-02-04T08:14:48;8.83;;;4.87;;
50821;SDS011;36794;51.212;6.980;2024-02-04T08:17:14;14.73;;;5.23;;
50821;SDS011;36794;51.212;6.980;2024-02-04T08:19:41;10.40;;;5.53;;
50821;SDS011;36794;51.212;6.980;2024-02-04T08:22:07;12.80;;;6.40;;
50821;SDS011;36794;51.212;6.980;2024-02-04T08:24:34;13.10;;;6.40;;
50821;SDS011;36794;51.212;6.980;2024-02-04T08:27:01;12.37;;;6.57;;
50821;SDS011;36794;51.212;6.980;2024-02-04T08:29:27;11.80;;;5.83;;
50821;SDS011;36794;51.212;6.980;2024-02-04T08:31:58;12.63;;;6.23;;
50821;SDS011;36794;51.212;6.980;2024-02-04T08:34:24;13.43;;;6.07;;
50821;SDS011;36794;51.212;6.980;2024-02-04T08:36:51;12.77;;;5.80;;
50821;SDS011;36794;51.212;6.980;2024-02-04T08:39:17;12.03;;;6.40;;
50821;SDS011;36794;51.212;6.980;2024-02-04T08:41:43;10.07;;;5.50;;
50821;SDS011;36794;51.212;6.980;2024-02-04T08:44:08;9.63;;;5.27;;
50821;SDS011;36794;51.212;6.980;2024-02-04T08:46:34;9.53;;;5.23;;
50821;SDS011;36794;51.212;6.980;2024-02-04T08:49:00;9.03;;;5.10;;
50821;SDS011;36794;51.212;6.980;2024-02-04T08:51:26;8.87;;;5.03;;
50821;SDS011;36794;51.212;6.980;2024-02-04T08:53:52;9.50;;;4.17;;
50821;SDS011;36794;51.212;6.980;2024-02-04T08:56:18;8.77;;;5.23;;
50821;SDS011;36794;51.212;6.980;2024-02-04T08:58:45;9.33;;;4.77;;
50821;SDS011;36794;51.212;6.980;2024-02-04T09:01:11;11.97;;;5.60;;
50821;SDS011;36794;51.212;6.980;2024-02-04T09:03:37;9.50;;;5.50;;
50821;SDS011;36794;51.212;6.980;2024-02-04T09:06:03;11.30;;;5.67;;
50821;SDS011;36794;51.212;6.980;2024-02-04T09:08:29;15.03;;;6.57;;
50821;SDS011;36794;51.212;6.980;2024-02-04T09:10:55;10.87;;;5.97;;
50821;SDS011;36794;51.212;6.980;2024-02-04T09:13:22;12.77;;;5.57;;
50821;SDS011;36794;51.212;6.980;2024-02-04T09:15:49;12.73;;;5.60;;
50821;SDS011;36794;51.212;6.980;2024-02-04T09:18:15;12.27;;;6.50;;
50821;SDS011;36794;51.212;6.980;2024-02-04T09:20:41;15.90;;;6.50;;
50821;SDS011;36794;51.212;6.980;2024-02-04T09:23:06;14.90;;;6.00;;
50821;SDS011;36794;51.212;6.980;2024-02-04T09:25:32;13.07;;;6.27;;
50821;SDS011;36794;51.212;6.980;2024-02-04T09:27:59;11.63;;;6.40;;
50821;SDS011;36794;51.212;6.980;2024-02-04T09:30:25;12.57;;;6.20;;
50821;SDS011;36794;51.212;6.980;2024-02-04T09:32:51;17.00;;;6.67;;
50821;SDS011;36794;51.212;6.980;2024-02-04T09:35:17;18.43;;;6.70;;
50821;SDS011;36794;51.212;6.980;2024-02-04T09:37:43;10.47;;;5.83;;
50821;SDS011;36794;51.212;6.980;2024-02-04T09:40:09;13.43;;;6.00;;
50821;SDS011;36794;51.212;6.980;2024-02-04T09:42:35;10.70;;;5.37;;
50821;SDS011;36794;51.212;6.980;2024-02-04T09:45:01;9.37;;;5.53;;
50821;SDS011;36794;51.212;6.980;2024-02-04T09:47:27;11.03;;;5.27;;
50821;SDS011;36794;51.212;6.980;2024-02-04T09:49:54;10.10;;;4.90;;
50821;SDS011;36794;51.212;6.980;2024-02-04T09:52:21;10.83;;;5.17;;
50821;SDS011;36794;51.212;6.980;2024-02-04T09:54:55;10.33;;;5.90;;
50821;SDS011;36794;51.212;6.980;2024-02-04T09:57:22;10.23;;;6.37;;
50821;SDS011;36794;51.212;6.980;2024-02-04T09:59:48;14.20;;;7.03;;
50821;SDS011;36794;51.212;6.980;2024-02-04T10:02:15;11.93;;;6.37;;
50821;SDS011;36794;51.212;6.980;2024-02-04T10:04:41;11.77;;;6.37;;
50821;SDS011;36794;51.212;6.980;2024-02-04T10:07:07;13.00;;;6.30;;
50821;SDS011;36794;51.212;6.980;2024-02-04T10:09:33;13.93;;;6.70;;
50821;SDS011;36794;51.212;6.980;2024-02-04T10:11:59;15.17;;;6.40;;
50821;SDS011;36794;51.212;6.980;2024-02-04T10:14:25;12.83;;;5.93;;
50821;SDS011;36794;51.212;6.980;2024-02-04T10:16:51;11.77;;;5.23;;
50821;SDS011;36794;51.212;6.980;2024-02-04T10:19:17;12.27;;;5.97;;
50821;SDS011;36794;51.212;6.980;2024-02-04T10:21:43;11.17;;;5.53;;
50821;SDS011;36794;51.212;6.980;2024-02-04T10:24:09;11.03;;;5.93;;
50821;SDS011;36794;51.212;6.980;2024-02-04T10:26:35;11.30;;;5.37;;
50821;SDS011;36794;51.212;6.980;2024-02-04T10:29:02;9.80;;;5.40;;
50821;SDS011;36794;51.212;6.980;2024-02-04T10:31:28;13.47;;;5.73;;
50821;SDS011;36794;51.212;6.980;2024-02-04T10:33:54;12.07;;;6.30;;
50821;SDS011;36794;51.212;6.980;2024-02-04T10:36:21;13.37;;;5.83;;
50821;SDS011;36794;51.212;6.980;2024-02-04T10:38:47;12.30;;;6.43;;
50821;SDS011;36794;51.212;6.980;2024-02-04T10:41:16;15.00;;;6.27;;
50821;SDS011;36794;51.212;6.980;2024-02-04T10:43:43;12.13;;;5.57;;
50821;SDS011;36794;51.212;6.980;2024-02-04T10:46:11;14.83;;;6.23;;
50821;SDS011;36794;51.212;6.980;2024-02-04T10:48:38;11.57;;;6.00;;
50821;SDS011;36794;51.212;6.980;2024-02-04T10:51:11;10.87;;;6.27;;
50821;SDS011;36794;51.212;6.980;2024-02-04T10:53:39;13.77;;;5.97;;
50821;SDS011;36794;51.212;6.980;2024-02-04T10:56:06;12.00;;;6.10;;
50821;SDS011;36794;51.212;6.980;2024-02-04T10:58:33;11.20;;;5.90;;
50821;SDS011;36794;51.212;6.980;2024-02-04T11:01:00;11.73;;;6.13;;
50821;SDS011;36794;51.212;6.980;2024-02-04T11:03:26;16.77;;;6.70;;
50821;SDS011;36794;51.212;6.980;2024-02-04T11:05:52;13.40;;;6.37;;
50821;SDS011;36794;51.212;6.980;2024-02-04T11:08:19;13.33;;;6.53;;
50821;SDS011;36794;51.212;6.980;2024-02-04T11:10:45;14.90;;;6.53;;
50821;SDS011;36794;51.212;6.980;2024-02-04T11:13:11;15.27;;;7.73;;
50821;SDS011;36794;51.212;6.980;2024-02-04T11:15:37;12.67;;;7.20;;
50821;SDS011;36794;51.212;6.980;2024-02-04T11:25:56;16.92;;;7.50;;
50821;SDS011;36794;51.212;6.980;2024-02-04T11:28:23;13.17;;;7.07;;
50821;SDS011;36794;51.212;6.980;2024-02-04T11:30:50;14.23;;;7.03;;
50821;SDS011;36794;51.212;6.980;2024-02-04T11:33:26;18.50;;;7.37;;
50821;SDS011;36794;51.212;6.980;2024-02-04T11:38:31;15.13;;;7.30;;
50821;SDS011;36794;51.212;6.980;2024-02-04T11:40:57;15.60;;;7.53;;
50821;SDS011;36794;51.212;6.980;2024-02-04T11:43:23;15.57;;;7.00;;
50821;SDS011;36794;51.212;6.980;2024-02-04T11:45:51;15.47;;;7.27;;
50821;SDS011;36794;51.212;6.980;2024-02-04T11:48:19;15.83;;;7.63;;
50821;SDS011;36794;51.212;6.980;2024-02-04T11:50:51;12.67;;;6.90;;
50821;SDS011;36794;51.212;6.980;2024-02-04T11:53:17;13.90;;;6.67;;
50821;SDS011;36794;51.212;6.980;2024-02-04T11:55:44;11.43;;;7.00;;
50821;SDS011;36794;51.212;6.980;2024-02-04T11:58:10;13.63;;;7.30;;
50821;SDS011;36794;51.212;6.980;2024-02-04T12:00:36;14.40;;;7.07;;
50821;SDS011;36794;51.212;6.980;2024-02-04T12:03:06;16.43;;;7.50;;
50821;SDS011;36794;51.212;6.980;2024-02-04T12:05:33;16.93;;;7.23;;
50821;SDS011;36794;51.212;6.980;2024-02-04T12:08:02;15.83;;;6.80;;
50821;SDS011;36794;51.212;6.980;2024-02-04T12:10:30;14.53;;;6.60;;
50821;SDS011;36794;51.212;6.980;2024-02-04T12:12:57;12.57;;;6.70;;
50821;SDS011;36794;51.212;6.980;2024-02-04T12:15:24;11.27;;;6.70;;
50821;SDS011;36794;51.212;6.980;2024-02-04T12:17:50;13.73;;;6.73;;
50821;SDS011;36794;51.212;6.980;2024-02-04T12:20:16;11.73;;;6.63;;
50821;SDS011;36794;51.212;6.980;2024-02-04T12:22:42;14.07;;;6.70;;
50821;SDS011;36794;51.212;6.980;2024-02-04T12:25:08;12.73;;;6.53;;
50821;SDS011;36794;51.212;6.980;2024-02-04T12:27:34;11.00;;;6.17;;
50821;SDS011;36794;51.212;6.980;2024-02-04T12:30:01;11.43;;;6.47;;
50821;SDS011;36794;51.212;6.980;2024-02-04T12:32:27;12.50;;;6.60;;
50821;SDS011;36794;51.212;6.980;2024-02-04T12:34:53;15.43;;;6.70;;
50821;SDS011;36794;51.212;6.980;2024-02-04T12:37:21;10.77;;;6.10;;
50821;SDS011;36794;51.212;6.980;2024-02-04T12:39:47;10.33;;;5.80;;
50821;SDS011;36794;51.212;6.980;2024-02-04T12:42:16;10.87;;;5.50;;
50821;SDS011;36794;51.212;6.980;2024-02-04T12:44:44;11.93;;;5.63;;
50821;SDS011;36794;51.212;6.980;2024-02-04T12:47:10;14.97;;;6.60;;
50821;SDS011;36794;51.212;6.980;2024-02-04T12:49:36;8.57;;;5.07;;
50821;SDS011;36794;51.212;6.980;2024-02-04T12:52:06;8.03;;;5.00;;
50821;SDS011;36794;51.212;6.980;2024-02-04T12:54:44;8.70;;;5.10;;
50821;SDS011;36794;51.212;6.980;2024-02-04T12:57:21;9.33;;;5.13;;
50821;SDS011;36794;51.212;6.980;2024-02-04T12:59:48;8.47;;;4.73;;
50821;SDS011;36794;51.212;6.980;2024-02-04T13:02:14;6.93;;;4.87;;
50821;SDS011;36794;51.212;6.980;2024-02-04T13:04:41;6.93;;;4.50;;
50821;SDS011;36794;51.212;6.980;2024-02-04T13:07:08;8.57;;;4.70;;
50821;SDS011;36794;51.212;6.980;2024-02-04T13:09:35;6.87;;;4.37;;
50821;SDS011;36794;51.212;6.980;2024-02-04T13:12:04;6.83;;;4.10;;
50821;SDS011;36794;51.212;6.980;2024-02-04T13:14:31;7.23;;;4.23;;
50821;SDS011;36794;51.212;6.980;2024-02-04T13:16:57;6.83;;;3.87;;
50821;SDS011;36794;51.212;6.980;2024-02-04T13:19:23;4.77;;;4.10;;
50821;SDS011;36794;51.212;6.980;2024-02-04T13:21:49;9.07;;;4.60;;
50821;SDS011;36794;51.212;6.980;2024-02-04T13:24:15;5.80;;;4.23;;
50821;SDS011;36794;51.212;6.980;2024-02-04T13:26:41;5.33;;;4.03;;
50821;SDS011;36794;51.212;6.980;2024-02-04T13:29:07;8.73;;;4.50;;
50821;SDS011;36794;51.212;6.980;2024-02-04T13:31:33;6.87;;;4.63;;
50821;SDS011;36794;51.212;6.980;2024-02-04T13:33:59;8.93;;;4.87;;
50821;SDS011;36794;51.212;6.980;2024-02-04T13:36:29;8.73;;;5.50;;
50821;SDS011;36794;51.212;6.980;2024-02-04T13:38:55;15.70;;;5.70;;
50821;SDS011;36794;51.212;6.980;2024-02-04T13:41:21;12.20;;;5.67;;
50821;SDS011;36794;51.212;6.980;2024-02-04T13:43:47;9.03;;;5.73;;
50821;SDS011;36794;51.212;6.980;2024-02-04T13:46:13;8.97;;;6.17;;
50821;SDS011;36794;51.212;6.980;2024-02-04T13:48:38;10.80;;;6.70;;
50821;SDS011;36794;51.212;6.980;2024-02-04T13:51:04;10.67;;;6.57;;
50821;SDS011;36794;51.212;6.980;2024-02-04T13:53:30;11.77;;;6.93;;
50821;SDS011;36794;51.212;6.980;2024-02-04T13:55:59;10.70;;;6.93;;
50821;SDS011;36794;51.212;6.980;2024-02-04T13:58:25;9.40;;;6.47;;
50821;SDS011;36794;51.212;6.980;2024-02-04T14:00:51;8.17;;;6.57;;
50821;SDS011;36794;51.212;6.980;2024-02-04T14:03:17;14.50;;;7.23;;
50821;SDS011;36794;51.212;6.980;2024-02-04T14:05:44;9.10;;;6.67;;
50821;SDS011;36794;51.212;6.980;2024-02-04T14:08:10;11.37;;;6.80;;
50821;SDS011;36794;51.212;6.980;2024-02-04T14:10:36;10.20;;;6.03;;
50821;SDS011;36794;51.212;6.980;2024-02-04T14:13:03;11.90;;;6.80;;
50821;SDS011;36794;51.212;6.980;2024-02-04T14:15:30;16.20;;;7.33;;
50821;SDS011;36794;51.212;6.980;2024-02-04T14:17:56;11.23;;;6.67;;
50821;SDS011;36794;51.212;6.980;2024-02-04T14:20:22;11.20;;;7.37;;
50821;SDS011;36794;51.212;6.980;2024-02-04T14:22:48;12.23;;;7.07;;
50821;SDS011;36794;51.212;6.980;2024-02-04T14:25:15;13.27;;;6.83;;
50821;SDS011;36794;51.212;6.980;2024-02-04T14:27:41;8.60;;;5.90;;
50821;SDS011;36794;51.212;6.980;2024-02-04T14:30:07;11.30;;;6.20;;
50821;SDS011;36794;51.212;6.980;2024-02-04T14:32:33;10.13;;;6.03;;
50821;SDS011;36794;51.212;6.980;2024-02-04T14:34:59;14.73;;;6.60;;
50821;SDS011;36794;51.212;6.980;2024-02-04T14:37:25;11.23;;;5.83;;
50821;SDS011;36794;51.212;6.980;2024-02-04T14:39:52;10.97;;;6.17;;
50821;SDS011;36794;51.212;6.980;2024-02-04T14:42:17;12.47;;;5.77;;